Time;durP1;ratioP1;P1;durP2;ratioP2;P2;SDS_P1;SDS_P2;PMS_P1;PMS_P2;Temp;Humidity;BMP_temperature;BMP_pressure;BME280_temperature;BME280_humidity;BME280_pressure;Samples;Min_cycle;Max_cycle;Signal;HPM_P1;HPM_P2
2022/05/28 00:01:51;;;;;;;2.53;1.80;;;22.60;53.70;;;;;;6160880;28;80723;-70
2022/05/28 00:04:52;;;;;;;1.67;1.55;;;22.60;53.60;;;;;;6160246;28;80426;-70
2022/05/28 00:07:52;;;;;;;2.30;1.85;;;22.60;53.60;;;;;;6160684;28;80550;-70
2022/05/28 00:10:53;;;;;;;3.03;1.88;;;22.60;53.70;;;;;;6160914;28;83301;-70
2022/05/28 00:13:53;;;;;;;2.65;1.88;;;22.60;53.60;;;;;;6162575;28;81768;-69
2022/05/28 00:16:54;;;;;;;1.95;1.70;;;22.60;53.50;;;;;;6153599;28;80460;-70
2022/05/28 00:19:54;;;;;;;2.88;1.67;;;22.60;53.50;;;;;;6156561;28;80414;-70
2022/05/28 00:22:55;;;;;;;2.38;1.48;;;22.60;53.60;;;;;;6162012;28;80407;-71
2022/05/28 00:25:55;;;;;;;2.53;1.73;;;22.60;53.60;;;;;;6160595;28;81802;-71
2022/05/28 00:28:56;;;;;;;2.20;1.42;;;22.60;53.40;;;;;;6144169;28;80263;-72
2022/05/28 00:31:57;;;;;;;4.05;1.52;;;22.60;53.50;;;;;;6157252;28;80266;-72
2022/05/28 00:34:57;;;;;;;2.20;1.45;;;22.50;53.70;;;;;;6157942;28;80583;-72
2022/05/28 00:37:57;;;;;;;2.13;1.90;;;22.60;53.70;;;;;;6141132;28;80294;-71
2022/05/28 00:40:58;;;;;;;3.33;1.58;;;22.50;53.50;;;;;;6155930;28;80968;-72
2022/05/28 00:43:59;;;;;;;2.95;1.73;;;22.50;53.50;;;;;;6161852;28;80327;-72
2022/05/28 00:46:59;;;;;;;3.83;1.55;;;22.50;53.70;;;;;;6161395;28;81299;-71
2022/05/28 00:50:00;;;;;;;2.88;1.90;;;22.60;53.60;;;;;;6153790;28;80310;-70
2022/05/28 00:53:00;;;;;;;4.43;1.80;;;22.60;53.60;;;;;;6159954;28;80559;-71
2022/05/28 00:56:01;;;;;;;2.83;2.22;;;22.50;53.70;;;;;;6150658;28;80464;-72
2022/05/28 00:59:01;;;;;;;2.80;1.95;;;22.50;53.60;;;;;;6160843;28;81219;-71
2022/05/28 01:02:02;;;;;;;2.00;1.60;;;22.50;53.80;;;;;;6160985;28;81477;-69
2022/05/28 01:05:02;;;;;;;3.20;1.60;;;22.50;53.40;;;;;;6161588;28;80697;-67
2022/05/28 01:08:03;;;;;;;2.58;1.60;;;22.50;53.90;;;;;;6155407;28;80536;-68
2022/05/28 01:11:03;;;;;;;2.85;1.73;;;22.50;53.60;;;;;;6154619;28;80459;-68
2022/05/28 01:14:04;;;;;;;3.28;2.20;;;22.50;53.60;;;;;;6146755;28;81569;-67
2022/05/28 01:17:05;;;;;;;3.60;1.80;;;22.50;53.60;;;;;;6144665;28;80435;-67
2022/05/28 01:20:06;;;;;;;2.90;1.80;;;22.50;53.60;;;;;;6160491;28;80334;-68
2022/05/28 01:23:06;;;;;;;2.42;1.70;;;22.50;53.60;;;;;;6154823;28;80988;-68
2022/05/28 01:26:07;;;;;;;3.47;2.15;;;22.50;53.50;;;;;;6159000;28;81719;-68
2022/05/28 01:29:08;;;;;;;2.75;2.20;;;22.50;53.50;;;;;;6159944;28;80819;-68
2022/05/28 01:32:08;;;;;;;3.22;1.80;;;22.50;53.40;;;;;;6151589;28;80610;-67
2022/05/28 01:35:09;;;;;;;2.58;1.65;;;22.50;53.40;;;;;;6140614;28;80353;-67
2022/05/28 01:38:11;;;;;;;3.38;1.75;;;22.50;53.40;;;;;;6141101;28;80412;-68
2022/05/28 01:41:11;;;;;;;2.10;1.60;;;22.50;53.30;;;;;;6158326;28;80489;-68
2022/05/28 01:44:12;;;;;;;2.13;1.58;;;22.60;53.50;;;;;;6158980;28;80267;-67
2022/05/28 01:47:12;;;;;;;1.85;1.58;;;22.50;53.20;;;;;;6157962;28;82546;-68
2022/05/28 01:50:13;;;;;;;2.28;1.77;;;22.50;53.20;;;;;;6155050;28;80385;-68
2022/05/28 01:54:07;;;;;;;2.83;1.83;;;22.50;53.00;;;;;;6160391;28;79885;-67
2022/05/28 01:56:34;;;;;;;3.45;1.92;;;22.50;53.20;;;;;;6152670;28;80385;-67
2022/05/28 01:59:35;;;;;;;1.85;1.58;;;22.50;53.10;;;;;;6158957;28;80446;-67
2022/05/28 02:02:35;;;;;;;3.00;1.80;;;22.50;53.10;;;;;;6152448;28;80131;-68
2022/05/28 02:05:36;;;;;;;2.58;2.13;;;22.50;53.30;;;;;;6159716;28;80279;-68
2022/05/28 02:08:36;;;;;;;3.25;2.28;;;22.50;53.20;;;;;;6159558;28;80359;-68
2022/05/28 02:11:37;;;;;;;2.20;1.77;;;22.50;53.20;;;;;;6159367;28;80810;-67
2022/05/28 02:14:37;;;;;;;3.00;2.00;;;22.50;53.00;;;;;;6137681;28;81548;-67
2022/05/28 02:17:39;;;;;;;2.42;1.85;;;22.50;53.00;;;;;;6159879;28;80377;-67
2022/05/28 02:20:40;;;;;;;1.92;1.58;;;22.40;53.10;;;;;;6145491;28;81709;-67
2022/05/28 02:23:40;;;;;;;1.70;1.58;;;22.40;53.20;;;;;;6157565;28;80387;-68
2022/05/28 02:26:43;;;;;;;4.38;1.73;;;22.50;53.10;;;;;;6157088;28;80841;-68
2022/05/28 02:29:43;;;;;;;5.95;1.73;;;22.50;53.20;;;;;;6145982;28;80413;-68
2022/05/28 02:32:44;;;;;;;2.08;1.60;;;22.40;52.90;;;;;;6155886;28;80110;-67
2022/05/28 02:35:47;;;;;;;2.63;1.45;;;22.40;53.00;;;;;;6152166;28;80921;-67
2022/05/28 02:38:48;;;;;;;4.82;1.73;;;22.40;53.00;;;;;;6155234;28;82475;-68
2022/05/28 02:41:48;;;;;;;3.38;1.70;;;22.40;53.00;;;;;;6158725;28;81195;-68
2022/05/28 02:44:49;;;;;;;2.67;1.48;;;22.40;53.00;;;;;;6156471;28;80756;-68
2022/05/28 02:47:49;;;;;;;1.95;1.70;;;22.40;53.20;;;;;;6157685;28;81968;-68
2022/05/28 02:50:50;;;;;;;3.13;1.63;;;22.40;53.10;;;;;;6148053;28;83417;-68
2022/05/28 02:53:50;;;;;;;6.18;1.90;;;22.40;53.10;;;;;;6155228;28;80325;-68
2022/05/28 02:56:51;;;;;;;6.53;2.00;;;22.40;53.20;;;;;;6157072;28;80552;-68
2022/05/28 02:59:51;;;;;;;2.85;1.98;;;22.40;53.30;;;;;;6150901;28;81441;-69
2022/05/28 03:02:52;;;;;;;2.38;1.80;;;22.40;53.20;;;;;;6147365;28;80527;-69
2022/05/28 03:05:53;;;;;;;2.85;1.70;;;22.40;53.40;;;;;;6152336;28;80488;-68
2022/05/28 03:08:53;;;;;;;2.00;1.80;;;22.40;53.30;;;;;;6148511;28;81757;-68
2022/05/28 03:11:54;;;;;;;1.98;1.55;;;22.40;53.20;;;;;;6155382;28;80431;-68
2022/05/28 03:14:54;;;;;;;2.10;1.80;;;22.40;53.30;;;;;;6149653;28;81068;-68
2022/05/28 03:17:56;;;;;;;2.80;1.70;;;22.40;53.30;;;;;;6156254;28;80124;-68
2022/05/28 03:20:57;;;;;;;3.88;2.03;;;22.40;53.40;;;;;;6156255;28;80319;-68
2022/05/28 03:23:57;;;;;;;2.67;1.80;;;22.40;53.40;;;;;;6146465;28;80463;-68
2022/05/28 03:26:58;;;;;;;2.38;1.65;;;22.40;53.30;;;;;;6156453;28;82417;-68
2022/05/28 03:29:58;;;;;;;2.55;1.80;;;22.40;53.40;;;;;;6144610;28;80200;-68
2022/05/28 03:32:59;;;;;;;3.00;1.80;;;22.40;53.50;;;;;;6158241;28;81902;-68
2022/05/28 03:35:59;;;;;;;2.45;1.80;;;22.40;53.40;;;;;;6157668;28;81007;-68
2022/05/28 03:39:02;;;;;;;2.35;1.77;;;22.40;54.40;;;;;;6160827;28;80444;-68
2022/05/28 03:42:02;;;;;;;3.08;1.70;;;22.40;53.50;;;;;;6162795;28;80961;-68
2022/05/28 03:45:03;;;;;;;4.18;2.05;;;22.40;53.20;;;;;;6162258;28;80533;-68
2022/05/28 03:48:03;;;;;;;3.55;2.30;;;22.40;53.30;;;;;;6147095;28;81613;-68
2022/05/28 03:51:04;;;;;;;4.40;2.15;;;22.40;53.20;;;;;;6156834;28;85361;-69
2022/05/28 03:54:04;;;;;;;2.85;1.90;;;22.40;53.20;;;;;;6158357;28;81869;-69
2022/05/28 03:57:05;;;;;;;3.28;2.05;;;22.40;53.10;;;;;;6162362;28;80629;-69
2022/05/28 04:00:05;;;;;;;2.70;1.73;;;22.40;53.20;;;;;;6150479;28;80354;-68
2022/05/28 04:03:06;;;;;;;4.07;1.73;;;22.40;53.20;;;;;;6159696;28;80628;-65
2022/05/28 04:06:06;;;;;;;2.38;2.08;;;22.40;53.20;;;;;;6144673;28;80643;-64
2022/05/28 04:09:07;;;;;;;2.38;2.03;;;22.40;53.50;;;;;;6161547;28;80449;-68
2022/05/28 04:12:07;;;;;;;2.88;1.98;;;22.40;53.60;;;;;;6158431;28;80602;-67
2022/05/28 04:15:08;;;;;;;8.98;2.42;;;22.40;53.80;;;;;;6156567;28;80278;-67
2022/05/28 04:18:09;;;;;;;3.33;2.20;;;22.50;53.90;;;;;;6148953;28;80858;-67
2022/05/28 04:21:09;;;;;;;2.88;1.98;;;22.50;54.20;;;;;;6151813;28;81215;-66
2022/05/28 04:24:10;;;;;;;8.02;2.20;;;22.50;54.20;;;;;;6155018;28;81196;-66
2022/05/28 04:27:10;;;;;;;3.25;2.15;;;22.50;54.20;;;;;;6161575;28;80574;-65
2022/05/28 04:30:11;;;;;;;5.00;2.20;;;22.50;54.80;;;;;;6155666;28;81057;-66
2022/05/28 04:33:11;;;;;;;3.75;2.03;;;22.50;55.00;;;;;;6158767;28;80440;-64
2022/05/28 04:36:12;;;;;;;27.60;2.47;;;22.50;55.10;;;;;;6160732;28;80486;-65
2022/05/28 04:39:12;;;;;;;10.93;2.10;;;22.60;55.30;;;;;;6158543;28;81026;-66
2022/05/28 04:42:13;;;;;;;5.18;1.95;;;22.60;55.50;;;;;;6157814;28;81281;-67
2022/05/28 04:45:13;;;;;;;4.32;2.25;;;22.60;55.00;;;;;;6150680;28;80762;-66
2022/05/28 04:48:14;;;;;;;4.15;1.90;;;22.60;55.20;;;;;;6157628;28;80723;-67
2022/05/28 04:51:14;;;;;;;7.30;2.10;;;22.70;55.30;;;;;;6160983;28;80857;-66
2022/05/28 04:54:15;;;;;;;5.53;2.10;;;22.60;55.20;;;;;;6161258;28;81837;-66
2022/05/28 04:57:15;;;;;;;15.52;2.10;;;22.60;55.00;;;;;;6161477;28;81086;-66
2022/05/28 05:00:16;;;;;;;4.97;1.90;;;22.70;55.30;;;;;;6158655;28;80536;-66
2022/05/28 05:03:16;;;;;;;3.67;2.17;;;22.70;55.40;;;;;;6155227;28;80960;-67
2022/05/28 05:06:17;;;;;;;6.13;2.05;;;22.70;55.30;;;;;;6149350;28;80266;-67
2022/05/28 05:09:17;;;;;;;2.63;1.80;;;22.70;55.40;;;;;;6149653;28;80345;-62
2022/05/28 05:12:18;;;;;;;7.13;1.95;;;22.70;55.30;;;;;;6152918;28;80645;-67
2022/05/28 05:15:18;;;;;;;3.90;2.75;;;22.70;55.30;;;;;;6158895;28;81818;-68
2022/05/28 05:18:19;;;;;;;3.92;1.90;;;22.70;55.50;;;;;;6147391;28;80208;-68
2022/05/28 05:21:19;;;;;;;8.40;2.10;;;22.70;55.50;;;;;;6142488;28;81756;-67
2022/05/28 05:24:20;;;;;;;4.05;2.40;;;22.70;55.50;;;;;;6151016;28;81436;-67
2022/05/28 05:27:20;;;;;;;6.78;2.22;;;22.70;55.80;;;;;;6152968;28;80611;-64
2022/05/28 05:30:21;;;;;;;14.20;2.10;;;22.80;55.80;;;;;;6140991;28;81401;-63
2022/05/28 05:33:22;;;;;;;4.22;2.20;;;22.80;55.40;;;;;;6146646;28;81547;-65
2022/05/28 05:36:22;;;;;;;8.18;2.10;;;22.80;55.30;;;;;;6150347;28;83503;-63
2022/05/28 05:39:23;;;;;;;6.55;2.28;;;22.80;55.30;;;;;;6157981;28;81392;-65
2022/05/28 05:42:23;;;;;;;9.32;2.17;;;22.80;55.10;;;;;;6158049;28;80976;-66
2022/05/28 05:45:24;;;;;;;4.28;2.40;;;22.90;55.40;;;;;;6160394;28;80860;-67
2022/05/28 05:48:24;;;;;;;3.92;2.50;;;22.90;54.90;;;;;;6158460;28;81020;-67
2022/05/28 05:51:25;;;;;;;6.47;3.05;;;22.90;55.20;;;;;;6157980;28;80584;-64
2022/05/28 05:54:25;;;;;;;8.32;2.65;;;22.90;55.50;;;;;;6154807;28;80467;-65
2022/05/28 05:57:26;;;;;;;8.48;3.17;;;22.90;55.60;;;;;;6147832;28;80325;-68
2022/05/28 06:00:26;;;;;;;7.07;2.65;;;22.90;55.70;;;;;;6140427;28;80310;-70
2022/05/28 06:03:26;;;;;;;6.05;2.42;;;22.90;55.60;;;;;;6139015;28;81033;-71
2022/05/28 06:06:27;;;;;;;6.68;3.08;;;22.90;55.60;;;;;;6138296;28;80224;-67
2022/05/28 06:09:27;;;;;;;5.88;3.03;;;22.90;55.80;;;;;;6150036;28;82164;-68
2022/05/28 06:12:28;;;;;;;4.85;2.40;;;22.90;55.70;;;;;;6153253;28;80238;-69
2022/05/28 06:15:28;;;;;;;6.32;2.90;;;22.90;56.00;;;;;;6153016;28;80028;-70
2022/05/28 06:18:29;;;;;;;37.60;4.78;;;22.90;56.80;;;;;;6152015;28;81081;-67
2022/05/28 06:21:29;;;;;;;9.32;2.85;;;22.90;57.20;;;;;;6150668;28;80795;-68
2022/05/28 06:24:30;;;;;;;16.92;3.22;;;22.90;57.80;;;;;;6144982;28;82738;-69
2022/05/28 06:27:30;;;;;;;24.85;5.07;;;23.00;57.50;;;;;;6149878;28;80707;-70
2022/05/28 06:30:31;;;;;;;14.43;3.17;;;23.00;57.20;;;;;;6151799;28;80980;-70
2022/05/28 06:33:31;;;;;;;15.55;4.03;;;23.00;57.60;;;;;;6153398;28;81583;-69
2022/05/28 06:36:32;;;;;;;13.98;3.20;;;23.00;57.30;;;;;;6144065;28;80266;-69
2022/05/28 06:39:32;;;;;;;17.73;3.90;;;23.00;57.30;;;;;;6149370;28;80750;-69
2022/05/28 06:42:33;;;;;;;15.38;3.80;;;23.00;56.70;;;;;;6158791;28;80406;-69
2022/05/28 06:45:33;;;;;;;10.07;2.97;;;23.00;56.80;;;;;;6158329;28;80435;-69
2022/05/28 06:48:35;;;;;;;7.63;2.70;;;23.00;56.10;;;;;;6158419;28;81518;-69
2022/05/28 06:51:37;;;;;;;9.73;2.78;;;23.00;55.80;;;;;;6159191;28;80625;-69
2022/05/28 06:54:39;;;;;;;9.35;3.35;;;23.00;55.70;;;;;;6159107;28;80566;-69
2022/05/28 06:57:39;;;;;;;6.25;2.30;;;23.00;55.50;;;;;;6158691;28;81982;-69
2022/05/28 07:00:40;;;;;;;6.05;2.60;;;23.00;55.40;;;;;;6151387;28;86156;-69
2022/05/28 07:03:40;;;;;;;17.90;3.28;;;23.00;55.20;;;;;;6148775;28;81051;-69
2022/05/28 07:06:41;;;;;;;11.43;2.92;;;23.00;54.70;;;;;;6152353;28;81430;-69
2022/05/28 07:09:41;;;;;;;8.75;2.83;;;23.00;54.70;;;;;;6155895;28;80705;-69
2022/05/28 07:12:42;;;;;;;10.77;2.30;;;23.00;54.40;;;;;;6139872;28;80366;-69
2022/05/28 07:15:42;;;;;;;11.45;2.72;;;23.00;54.30;;;;;;6162610;28;80317;-69
2022/05/28 07:18:43;;;;;;;7.28;2.92;;;23.00;54.20;;;;;;6163158;28;80555;-69
2022/05/28 07:21:43;;;;;;;8.52;2.40;;;23.00;53.90;;;;;;6152344;28;83544;-69
2022/05/28 07:24:44;;;;;;;4.88;2.28;;;23.00;53.60;;;;;;6155440;28;80210;-69
2022/05/28 07:27:44;;;;;;;10.07;3.13;;;23.00;53.40;;;;;;6162257;28;81193;-69
2022/05/28 07:30:45;;;;;;;3.80;1.88;;;23.00;53.20;;;;;;6159929;28;80349;-69
2022/05/28 07:33:45;;;;;;;5.70;2.45;;;23.00;53.00;;;;;;6152885;28;80758;-70
2022/05/28 07:36:48;;;;;;;5.45;2.20;;;23.00;52.90;;;;;;6152899;28;80234;-69
2022/05/28 07:39:48;;;;;;;8.55;2.78;;;23.00;52.80;;;;;;6159601;28;80645;-68
2022/05/28 07:42:49;;;;;;;9.30;2.90;;;23.00;52.60;;;;;;6162805;28;81047;-69
2022/05/28 07:45:49;;;;;;;6.70;2.85;;;23.00;52.60;;;;;;6154906;28;81441;-69
2022/05/28 07:48:50;;;;;;;5.97;2.38;;;23.00;52.40;;;;;;6162983;28;81296;-68
2022/05/28 07:51:50;;;;;;;7.30;2.70;;;23.00;52.30;;;;;;6163000;28;81696;-69
2022/05/28 07:54:51;;;;;;;6.88;2.22;;;23.00;52.30;;;;;;6161113;28;81488;-69
2022/05/28 07:57:51;;;;;;;5.75;1.90;;;23.00;52.20;;;;;;6157944;28;82359;-69
2022/05/28 08:00:52;;;;;;;8.32;2.70;;;23.00;52.10;;;;;;6153158;28;80424;-69
2022/05/28 08:03:52;;;;;;;8.05;2.80;;;23.00;52.10;;;;;;6152242;28;81489;-69
2022/05/28 08:06:53;;;;;;;8.05;2.85;;;23.00;51.90;;;;;;6158203;28;81211;-69
2022/05/28 08:09:53;;;;;;;5.00;2.08;;;23.00;51.70;;;;;;6162600;28;80393;-69
2022/05/28 08:12:54;;;;;;;2.83;2.13;;;23.00;51.60;;;;;;6157152;28;80334;-69
2022/05/28 08:15:54;;;;;;;5.07;1.85;;;23.00;51.50;;;;;;6158487;28;80575;-68
2022/05/28 08:18:55;;;;;;;10.93;2.58;;;23.00;51.40;;;;;;6153752;28;84049;-69
2022/05/28 08:25:15;;;;;;;5.18;2.22;;;23.00;51.10;;;;;;6150725;28;80615;-69
2022/05/28 08:28:15;;;;;;;2.33;1.52;;;23.00;50.90;;;;;;6154753;28;80917;-69
2022/05/28 08:31:16;;;;;;;4.55;1.67;;;23.00;51.00;;;;;;6158901;28;80792;-69
2022/05/28 08:34:16;;;;;;;4.95;2.08;;;23.00;51.10;;;;;;6160361;28;80354;-69
2022/05/28 08:37:17;;;;;;;2.95;1.80;;;23.00;51.00;;;;;;6157009;28;80819;-69
2022/05/28 08:40:17;;;;;;;4.20;2.05;;;23.00;50.80;;;;;;6162074;28;80377;-69
2022/05/28 08:43:18;;;;;;;4.32;1.80;;;23.00;50.60;;;;;;6161278;28;81499;-69
2022/05/28 08:46:18;;;;;;;4.75;1.90;;;23.00;50.50;;;;;;6160073;28;80408;-69
2022/05/28 08:49:19;;;;;;;6.32;2.15;;;23.00;50.40;;;;;;6139718;28;80604;-68
2022/05/28 08:52:19;;;;;;;4.13;1.60;;;23.10;49.90;;;;;;6161865;28;80511;-69
2022/05/28 08:55:20;;;;;;;3.70;1.80;;;23.00;49.90;;;;;;6161268;28;81855;-69
2022/05/28 08:58:20;;;;;;;6.40;1.60;;;23.00;49.80;;;;;;6157821;28;80282;-68
2022/05/28 09:01:21;;;;;;;5.85;1.92;;;23.10;49.80;;;;;;6156524;28;80373;-69
2022/05/28 09:04:21;;;;;;;3.20;1.58;;;23.10;49.60;;;;;;6152420;28;80646;-69
2022/05/28 09:07:22;;;;;;;4.15;1.85;;;23.00;49.60;;;;;;6147756;28;80287;-69
2022/05/28 09:10:23;;;;;;;3.83;1.38;;;23.10;49.40;;;;;;6149508;28;81348;-68
2022/05/28 09:13:23;;;;;;;4.63;2.58;;;23.10;49.40;;;;;;6149943;28;80334;-68
2022/05/28 09:16:24;;;;;;;8.05;1.83;;;23.10;49.20;;;;;;6161008;28;80335;-68
2022/05/28 09:19:25;;;;;;;3.03;1.55;;;23.10;49.20;;;;;;6156595;28;80759;-68
2022/05/28 09:22:25;;;;;;;7.63;1.75;;;23.10;49.10;;;;;;6154421;28;80346;-69
2022/05/28 09:25:26;;;;;;;3.10;1.40;;;23.10;49.00;;;;;;6145972;28;80309;-69
2022/05/28 09:28:26;;;;;;;4.97;1.70;;;23.10;48.80;;;;;;6149442;28;81111;-69
2022/05/28 09:31:27;;;;;;;2.42;1.60;;;23.10;48.80;;;;;;6160972;28;80600;-69
2022/05/28 09:34:27;;;;;;;4.32;1.35;;;23.10;48.80;;;;;;6160390;28;80254;-69
2022/05/28 09:37:28;;;;;;;2.03;1.35;;;23.10;48.70;;;;;;6160860;28;80390;-68
2022/05/28 09:40:28;;;;;;;3.50;1.42;;;23.10;48.70;;;;;;6151299;28;80655;-69
2022/05/28 09:43:29;;;;;;;6.70;2.45;;;23.10;48.50;;;;;;6154860;28;81247;-69
2022/05/28 09:46:29;;;;;;;5.85;1.63;;;23.10;49.20;;;;;;6152377;28;80618;-68
2022/05/28 09:49:30;;;;;;;7.65;1.52;;;23.10;49.20;;;;;;6152786;28;80320;-66
2022/05/28 09:52:31;;;;;;;7.43;1.60;;;23.20;48.90;;;;;;6154858;28;87859;-63
2022/05/28 09:55:31;;;;;;;4.63;1.60;;;23.20;48.50;;;;;;6141577;28;80245;-67
2022/05/28 09:58:32;;;;;;;9.40;1.55;;;23.10;48.80;;;;;;6139072;28;82138;-68
2022/05/28 10:01:34;;;;;;;8.73;2.10;;;23.20;48.70;;;;;;6148113;28;80333;-68
2022/05/28 10:04:34;;;;;;;12.32;2.95;;;23.20;48.70;;;;;;6120062;28;80798;-69
2022/05/28 10:07:35;;;;;;;4.90;1.92;;;23.20;48.90;;;;;;6135189;28;80301;-68
2022/05/28 10:10:38;;;;;;;7.05;1.95;;;23.20;49.40;;;;;;6156141;28;87458;-69
2022/05/28 10:13:38;;;;;;;5.55;1.45;;;23.20;49.70;;;;;;6143712;28;81118;-67
2022/05/28 10:16:39;;;;;;;6.78;1.75;;;23.20;50.90;;;;;;6143429;28;80691;-67
2022/05/28 10:19:39;;;;;;;4.30;1.48;;;23.30;50.50;;;;;;6150480;28;80742;-68
2022/05/28 10:22:40;;;;;;;3.78;1.38;;;23.20;51.20;;;;;;6143771;28;80375;-67
2022/05/28 10:25:41;;;;;;;2.65;1.50;;;23.20;51.80;;;;;;6151640;28;81385;-67
2022/05/28 10:28:41;;;;;;;6.15;2.40;;;23.30;52.20;;;;;;6146680;28;81045;-67
2022/05/28 10:31:42;;;;;;;3.33;1.40;;;23.30;52.70;;;;;;6150286;28;80524;-65
2022/05/28 10:34:42;;;;;;;8.68;2.22;;;23.30;53.40;;;;;;6151488;28;80442;-67
2022/05/28 10:37:43;;;;;;;3.70;1.50;;;23.30;53.80;;;;;;6149883;28;81659;-67
2022/05/28 10:40:43;;;;;;;4.28;1.65;;;23.20;54.60;;;;;;6152763;28;80364;-64
2022/05/28 10:43:44;;;;;;;4.43;1.50;;;23.20;54.80;;;;;;6143774;28;81853;-67
2022/05/28 10:46:44;;;;;;;2.95;1.58;;;23.20;54.70;;;;;;6153776;28;80566;-66
2022/05/28 10:49:45;;;;;;;8.25;2.13;;;23.30;54.80;;;;;;6148505;28;80374;-66
2022/05/28 10:52:45;;;;;;;5.68;1.48;;;23.30;54.20;;;;;;6144355;28;81380;-67
2022/05/28 10:55:46;;;;;;;4.38;1.40;;;23.40;54.20;;;;;;6146939;28;82396;-66
2022/05/28 10:58:46;;;;;;;5.10;1.52;;;23.40;52.50;;;;;;6149719;28;81424;-66
2022/05/28 11:01:47;;;;;;;4.25;1.70;;;23.10;50.30;;;;;;6146613;28;80013;-67
2022/05/28 11:04:48;;;;;;;5.50;1.65;;;23.00;48.90;;;;;;6127900;28;80850;-67
2022/05/28 11:07:48;;;;;;;6.35;1.63;;;22.80;46.70;;;;;;6153446;28;80117;-67
2022/05/28 11:10:49;;;;;;;3.80;1.75;;;22.20;39.80;;;;;;6166553;28;80570;-67
2022/05/28 11:13:49;;;;;;;4.93;1.20;;;21.80;40.40;;;;;;6150885;28;80755;-64
2022/05/28 11:16:52;;;;;;;3.15;1.52;;;21.80;41.80;;;;;;6140321;28;80673;-67
2022/05/28 11:19:52;;;;;;;2.40;1.33;;;22.10;44.20;;;;;;6136480;28;80347;-66
2022/05/28 11:22:53;;;;;;;2.08;1.15;;;22.30;43.80;;;;;;6136184;28;81230;-66
2022/05/28 11:25:53;;;;;;;3.15;1.25;;;22.40;43.50;;;;;;6143738;28;80545;-67
2022/05/28 11:28:54;;;;;;;4.55;1.50;;;22.40;43.80;;;;;;6138050;28;81450;-66
2022/05/28 11:31:54;;;;;;;2.95;1.48;;;22.50;43.60;;;;;;6144490;28;80628;-66
2022/05/28 11:34:55;;;;;;;3.67;1.38;;;22.40;43.80;;;;;;6150478;28;81165;-69
2022/05/28 11:37:55;;;;;;;3.90;1.30;;;22.50;44.20;;;;;;6146669;28;80877;-68
2022/05/28 11:40:56;;;;;;;3.47;1.90;;;22.50;44.10;;;;;;6137975;28;80350;-68
2022/05/28 11:43:56;;;;;;;3.63;1.70;;;22.50;43.90;;;;;;6141494;28;80829;-68
2022/05/28 11:46:57;;;;;;;3.95;1.75;;;22.50;43.20;;;;;;6141487;28;80577;-67
2022/05/28 11:53:16;;;;;;;6.57;1.92;;;22.20;44.90;;;;;;6135894;28;80562;-67
2022/05/28 11:56:17;;;;;;;3.45;1.40;;;22.20;45.00;;;;;;6136718;28;80582;-68
2022/05/28 11:59:17;;;;;;;1.60;1.10;;;22.30;45.00;;;;;;6143993;28;81492;-67
2022/05/28 12:02:18;;;;;;;1.75;1.08;;;22.40;44.40;;;;;;6142942;28;80557;-67
2022/05/28 12:05:18;;;;;;;4.38;1.40;;;22.50;44.90;;;;;;6151143;28;80315;-68
2022/05/28 12:08:19;;;;;;;2.55;1.10;;;22.60;45.10;;;;;;6142609;28;80571;-68
2022/05/28 12:11:19;;;;;;;3.97;0.80;;;22.70;45.10;;;;;;6141846;28;80637;-67
2022/05/28 12:14:20;;;;;;;2.28;1.25;;;22.70;44.70;;;;;;6144899;28;80419;-68
2022/05/28 12:17:21;;;;;;;2.88;1.42;;;22.80;44.30;;;;;;6144447;28;80904;-68
2022/05/28 12:20:21;;;;;;;2.75;1.08;;;22.80;44.50;;;;;;6143833;28;81567;-68
2022/05/28 12:23:22;;;;;;;1.45;0.80;;;22.90;44.80;;;;;;6139563;28;81596;-68
2022/05/28 12:26:45;;;;;;;1.65;1.00;;;22.90;45.60;;;;;;6140366;28;81526;-68
2022/05/28 12:29:48;;;;;;;1.40;0.90;;;22.90;45.80;;;;;;6147978;28;80378;-67
2022/05/28 12:32:49;;;;;;;;;;;22.90;45.20;;;;;;6143345;28;80011;-68
2022/05/28 12:35:50;;;;;;;2.13;0.75;;;22.80;44.80;;;;;;6151850;28;81609;-69
2022/05/28 12:38:50;;;;;;;0.88;0.80;;;22.80;44.50;;;;;;6139587;28;80312;-68
2022/05/28 12:41:51;;;;;;;6.00;0.95;;;22.80;43.60;;;;;;6143936;28;80522;-67
2022/05/28 12:44:51;;;;;;;3.03;1.20;;;22.70;43.50;;;;;;6151990;28;81797;-68
2022/05/28 12:47:52;;;;;;;0.90;0.73;;;22.60;43.30;;;;;;6154203;28;80297;-68
2022/05/28 12:50:54;;;;;;;2.28;0.68;;;22.50;44.10;;;;;;6151352;28;80939;-68
2022/05/28 12:53:55;;;;;;;5.45;1.00;;;22.40;44.10;;;;;;6142022;28;80409;-68
2022/05/28 12:56:55;;;;;;;1.35;1.02;;;22.50;44.40;;;;;;6143259;28;80209;-68
2022/05/28 12:59:56;;;;;;;2.40;1.00;;;22.60;44.90;;;;;;6144362;28;81168;-69
2022/05/28 13:02:56;;;;;;;1.02;0.90;;;22.70;45.10;;;;;;6140211;28;80401;-68
2022/05/28 13:05:57;;;;;;;2.63;1.05;;;22.80;45.60;;;;;;6145866;28;81680;-68
2022/05/28 13:08:58;;;;;;;2.60;1.27;;;22.80;45.90;;;;;;6140997;28;80669;-69
2022/05/28 13:11:58;;;;;;;2.05;1.00;;;22.90;46.00;;;;;;6142976;28;81081;-67
2022/05/28 13:14:59;;;;;;;1.33;0.98;;;22.90;46.10;;;;;;6142102;28;80248;-67
2022/05/28 13:17:59;;;;;;;2.50;1.52;;;22.90;45.70;;;;;;6150445;28;81639;-67
2022/05/28 13:21:00;;;;;;;1.27;1.08;;;23.00;46.20;;;;;;6150266;28;81579;-67
2022/05/28 13:24:00;;;;;;;4.15;1.15;;;23.00;45.80;;;;;;6151752;28;80331;-68
2022/05/28 13:27:01;;;;;;;1.05;0.98;;;23.00;46.30;;;;;;6153185;28;80661;-68
2022/05/28 13:30:01;;;;;;;1.48;0.88;;;23.00;45.90;;;;;;6160790;28;80972;-68
2022/05/28 13:33:02;;;;;;;1.48;0.80;;;23.00;45.50;;;;;;6157196;28;80347;-67
2022/05/28 13:36:02;;;;;;;2.17;1.10;;;23.00;45.80;;;;;;6148070;28;80786;-66
2022/05/28 13:39:03;;;;;;;3.38;1.15;;;23.00;45.70;;;;;;6150347;28;80517;-67
2022/05/28 13:42:07;;;;;;;1.90;0.90;;;23.00;46.20;;;;;;6155532;28;80447;-68
2022/05/28 13:45:09;;;;;;;3.40;0.90;;;23.10;46.50;;;;;;6152386;28;84797;-70
2022/05/28 13:48:09;;;;;;;3.35;1.00;;;23.10;46.70;;;;;;6146110;28;80601;-68
2022/05/28 13:51:10;;;;;;;3.35;1.00;;;23.10;47.10;;;;;;6139548;28;82048;-70
2022/05/28 13:54:11;;;;;;;2.83;1.02;;;23.10;47.60;;;;;;6155357;28;80771;-70
2022/05/28 13:57:12;;;;;;;2.25;1.30;;;23.10;47.60;;;;;;6150214;28;80385;-65
2022/05/28 14:00:13;;;;;;;3.42;1.05;;;23.20;47.50;;;;;;6152154;28;81916;-69
2022/05/28 14:03:13;;;;;;;2.85;0.88;;;23.20;47.80;;;;;;6150249;28;80377;-68
2022/05/28 14:06:14;;;;;;;5.03;1.02;;;23.20;47.80;;;;;;6145464;28;81693;-69
2022/05/28 14:09:14;;;;;;;4.57;1.85;;;23.20;47.40;;;;;;6150004;28;80639;-69
2022/05/28 14:12:15;;;;;;;1.60;1.20;;;23.10;48.30;;;;;;6153624;28;82031;-69
2022/05/28 14:15:15;;;;;;;7.82;1.45;;;23.10;48.50;;;;;;6148746;28;80430;-68
2022/05/28 14:18:16;;;;;;;3.10;1.23;;;23.10;48.90;;;;;;6152118;28;80697;-68
2022/05/28 14:21:16;;;;;;;2.17;1.15;;;23.10;49.40;;;;;;6158388;28;80421;-68
2022/05/28 14:24:17;;;;;;;3.28;1.50;;;23.10;49.30;;;;;;6151722;28;80521;-70
2022/05/28 14:27:17;;;;;;;3.28;1.35;;;23.10;49.80;;;;;;6148306;28;81668;-68
2022/05/28 14:30:18;;;;;;;3.70;1.73;;;23.10;49.80;;;;;;6149488;28;81606;-69
2022/05/28 14:33:19;;;;;;;2.30;1.75;;;23.10;49.80;;;;;;6150069;28;80832;-69
2022/05/28 14:36:19;;;;;;;3.72;1.83;;;23.10;49.70;;;;;;6140848;28;81597;-69
2022/05/28 14:39:20;;;;;;;2.67;1.30;;;23.10;49.40;;;;;;6159713;28;81457;-68
2022/05/28 14:42:20;;;;;;;1.85;1.30;;;23.10;49.60;;;;;;6141097;28;80822;-69
2022/05/28 14:45:21;;;;;;;1.25;1.15;;;23.10;49.50;;;;;;6141605;28;81410;-69
2022/05/28 14:48:22;;;;;;;2.47;1.77;;;23.00;49.60;;;;;;6140285;28;80485;-68
2022/05/28 14:51:22;;;;;;;21.27;8.23;;;23.00;49.40;;;;;;6144483;28;81391;-70
2022/05/28 14:54:23;;;;;;;101.10;41.83;;;23.10;49.30;;;;;;6158432;28;82401;-69
2022/05/28 14:57:23;;;;;;;135.82;57.53;;;23.10;50.10;;;;;;6153758;28;83131;-69
2022/05/28 15:00:24;;;;;;;223.60;93.72;;;23.20;49.80;;;;;;6153124;28;83096;-69
2022/05/28 15:03:24;;;;;;;264.42;111.90;;;23.20;49.50;;;;;;6154891;28;84126;-69
2022/05/28 15:06:25;;;;;;;356.13;154.77;;;23.20;49.30;;;;;;6151591;28;85574;-67
2022/05/28 15:09:26;;;;;;;321.20;141.98;;;23.20;49.60;;;;;;6146184;28;86087;-68
2022/05/28 15:12:26;;;;;;;256.27;110.53;;;23.20;49.80;;;;;;6149691;28;85607;-68
2022/05/28 15:15:27;;;;;;;245.77;105.57;;;23.20;49.30;;;;;;6147928;28;85330;-67
2022/05/28 15:18:27;;;;;;;289.23;121.32;;;23.30;49.80;;;;;;6145935;28;86574;-67
2022/05/28 15:21:28;;;;;;;311.08;132.48;;;23.30;49.80;;;;;;6144691;28;85651;-70
2022/05/28 15:24:28;;;;;;;426.05;184.23;;;23.30;50.60;;;;;;6133602;28;86535;-66
2022/05/28 15:27:29;;;;;;;434.48;188.25;;;23.20;49.50;;;;;;6137903;28;85410;-68
2022/05/28 15:30:29;;;;;;;500.48;209.60;;;23.30;49.60;;;;;;6151033;28;85739;-66
2022/05/28 15:33:30;;;;;;;406.17;167.68;;;23.30;49.40;;;;;;6144350;28;86480;-67
2022/05/28 15:39:50;;;;;;;333.73;141.82;;;23.20;49.30;;;;;;6154319;28;85584;-67
2022/05/28 15:42:50;;;;;;;306.65;126.18;;;23.20;48.90;;;;;;6157106;28;85943;-69
2022/05/28 15:45:51;;;;;;;277.05;118.43;;;23.10;49.40;;;;;;6155076;28;88723;-68